sensor_id;sensor_type;location;lat;lon;timestamp;pressure;altitude;pressure_sealevel;temperature;humidity
54122;BME280;40029;58.708;50.190;2022-12-18T06:37:43;100306.16;;;-3.72;48.89
54122;BME280;40029;58.708;50.190;2022-12-18T06:40:14;100382.53;;;-3.12;48.76
54122;BME280;40029;58.708;50.190;2022-12-18T06:42:46;100372.25;;;-3.15;48.89
54122;BME280;40029;58.708;50.190;2022-12-18T06:45:17;100368.28;;;-3.06;48.90
54122;BME280;40029;58.708;50.190;2022-12-18T06:47:48;100348.31;;;-3.22;49.09
54122;BME280;40029;58.708;50.190;2022-12-18T06:50:19;100340.47;;;-3.28;49.54
54122;BME280;40029;58.708;50.190;2022-12-18T06:52:50;100338.53;;;-3.38;49.80
54122;BME280;40029;58.708;50.190;2022-12-18T06:55:21;100335.69;;;-3.17;49.72
54122;BME280;40029;58.708;50.190;2022-12-18T06:57:52;100306.38;;;-3.33;49.81
54122;BME280;40029;58.708;50.190;2022-12-18T07:00:23;100312.25;;;-3.03;48.93
54122;BME280;40029;58.708;50.190;2022-12-18T07:02:54;100298.88;;;-2.94;49.16
54122;BME280;40029;58.708;50.190;2022-12-18T07:05:25;100261.81;;;-3.16;48.71
54122;BME280;40029;58.708;50.190;2022-12-18T07:07:57;100281.78;;;-2.98;48.86
54122;BME280;40029;58.708;50.190;2022-12-18T07:10:28;100260.50;;;-3.00;48.65
54122;BME280;40029;58.708;50.190;2022-12-18T07:12:59;100263.34;;;-2.88;48.82
54122;BME280;40029;58.708;50.190;2022-12-18T07:15:30;100242.75;;;-2.97;49.13
54122;BME280;40029;58.708;50.190;2022-12-18T07:18:01;100250.41;;;-2.95;49.12
54122;BME280;40029;58.708;50.190;2022-12-18T07:20:32;100179.19;;;-3.25;49.16
54122;BME280;40029;58.708;50.190;2022-12-18T07:23:05;100180.31;;;-3.14;48.95
54122;BME280;40029;58.708;50.190;2022-12-18T07:25:36;100214.22;;;-2.81;48.46
54122;BME280;40029;58.708;50.190;2022-12-18T07:28:07;100193.47;;;-2.96;48.81
54122;BME280;40029;58.708;50.190;2022-12-18T07:30:38;100197.00;;;-2.91;49.04
54122;BME280;40029;58.708;50.190;2022-12-18T07:33:09;100180.00;;;-2.90;49.46
54122;BME280;40029;58.708;50.190;2022-12-18T07:35:40;100172.44;;;-2.86;49.13
54122;BME280;40029;58.708;50.190;2022-12-18T07:38:11;100151.38;;;-2.77;49.31
54122;BME280;40029;58.708;50.190;2022-12-18T07:40:42;100127.50;;;-2.82;49.29
54122;BME280;40029;58.708;50.190;2022-12-18T07:46:21;100118.22;;;-2.79;48.59
54122;BME280;40029;58.708;50.190;2022-12-18T07:48:53;100020.16;;;-3.34;48.68
54122;BME280;40029;58.708;50.190;2022-12-18T07:51:24;100102.22;;;-2.71;48.99
54122;BME280;40029;58.708;50.190;2022-12-18T07:53:56;100049.81;;;-2.98;49.04
54122;BME280;40029;58.708;50.190;2022-12-18T07:56:27;100081.78;;;-2.73;49.20
54122;BME280;40029;58.708;50.190;2022-12-18T07:58:59;100072.41;;;-2.75;49.04
54122;BME280;40029;58.708;50.190;2022-12-18T08:01:35;100001.25;;;-3.04;48.97
54122;BME280;40029;58.708;50.190;2022-12-18T08:04:06;100062.31;;;-2.68;48.48
54122;BME280;40029;58.708;50.190;2022-12-18T08:06:37;100069.19;;;-2.65;48.72
54122;BME280;40029;58.708;50.190;2022-12-18T08:09:09;100063.00;;;-2.77;48.87
54122;BME280;40029;58.708;50.190;2022-12-18T08:11:40;100069.94;;;-2.69;48.87
54122;BME280;40029;58.708;50.190;2022-12-18T08:14:11;100057.19;;;-2.69;48.82
54122;BME280;40029;58.708;50.190;2022-12-18T08:16:42;100052.25;;;-2.63;48.88
54122;BME280;40029;58.708;50.190;2022-12-18T08:19:13;100036.97;;;-2.60;49.06
54122;BME280;40029;58.708;50.190;2022-12-18T08:21:44;100025.91;;;-2.61;48.81
54122;BME280;40029;58.708;50.190;2022-12-18T08:24:15;100018.16;;;-2.65;48.61
54122;BME280;40029;58.708;50.190;2022-12-18T08:26:46;100011.44;;;-2.63;49.07
54122;BME280;40029;58.708;50.190;2022-12-18T08:29:17;100004.66;;;-2.61;49.25
54122;BME280;40029;58.708;50.190;2022-12-18T08:31:48;99996.22;;;-2.59;48.94
54122;BME280;40029;58.708;50.190;2022-12-18T08:34:19;99930.97;;;-2.93;48.64
54122;BME280;40029;58.708;50.190;2022-12-18T08:36:50;99870.34;;;-3.09;48.41
54122;BME280;40029;58.708;50.190;2022-12-18T08:39:21;99972.34;;;-2.61;48.98
54122;BME280;40029;58.708;50.190;2022-12-18T08:41:52;99970.63;;;-2.62;49.09
54122;BME280;40029;58.708;50.190;2022-12-18T08:44:42;99969.69;;;-2.67;49.40
54122;BME280;40029;58.708;50.190;2022-12-18T08:47:13;99908.97;;;-2.88;48.88
54122;BME280;40029;58.708;50.190;2022-12-18T08:49:43;99960.50;;;-2.57;48.98
54122;BME280;40029;58.708;50.190;2022-12-18T08:52:15;99949.38;;;-2.62;48.77
54122;BME280;40029;58.708;50.190;2022-12-18T08:54:46;99951.00;;;-2.67;48.84
54122;BME280;40029;58.708;50.190;2022-12-18T08:57:16;99945.00;;;-2.69;49.21
54122;BME280;40029;58.708;50.190;2022-12-18T08:59:47;99948.56;;;-2.60;48.93
54122;BME280;40029;58.708;50.190;2022-12-18T09:02:18;99956.88;;;-2.70;49.35
54122;BME280;40029;58.708;50.190;2022-12-18T09:04:49;99951.00;;;-2.66;49.07
54122;BME280;40029;58.708;50.190;2022-12-18T09:07:20;99954.50;;;-2.61;49.59
54122;BME280;40029;58.708;50.190;2022-12-18T09:09:51;99951.16;;;-2.58;49.30
54122;BME280;40029;58.708;50.190;2022-12-18T09:12:22;99951.97;;;-2.59;49.05
54122;BME280;40029;58.708;50.190;2022-12-18T09:14:53;99954.44;;;-2.64;49.37
54122;BME280;40029;58.708;50.190;2022-12-18T09:17:24;99951.88;;;-2.64;49.85
54122;BME280;40029;58.708;50.190;2022-12-18T09:19:55;99963.84;;;-2.61;49.79
54122;BME280;40029;58.708;50.190;2022-12-18T09:22:26;99951.16;;;-2.57;49.18
54122;BME280;40029;58.708;50.190;2022-12-18T09:24:57;99953.72;;;-2.55;49.46
54122;BME280;40029;58.708;50.190;2022-12-18T09:27:28;99929.13;;;-2.53;49.59
54122;BME280;40029;58.708;50.190;2022-12-18T09:29:59;99881.94;;;-2.77;49.81
54122;BME280;40029;58.708;50.190;2022-12-18T09:32:30;99914.72;;;-2.49;49.50
54122;BME280;40029;58.708;50.190;2022-12-18T09:35:01;99907.94;;;-2.47;49.31
54122;BME280;40029;58.708;50.190;2022-12-18T09:37:34;99895.06;;;-2.55;49.77
54122;BME280;40029;58.708;50.190;2022-12-18T09:40:05;99889.94;;;-2.58;49.51
54122;BME280;40029;58.708;50.190;2022-12-18T09:42:36;99871.25;;;-2.57;49.17
54122;BME280;40029;58.708;50.190;2022-12-18T09:45:12;99814.66;;;-2.85;49.87
54122;BME280;40029;58.708;50.190;2022-12-18T09:47:46;99846.66;;;-2.52;49.20
54122;BME280;40029;58.708;50.190;2022-12-18T09:50:28;99833.88;;;-2.54;49.55
54122;BME280;40029;58.708;50.190;2022-12-18T09:53:14;99817.63;;;-2.60;49.64
54122;BME280;40029;58.708;50.190;2022-12-18T09:55:47;99803.16;;;-2.60;49.65
54122;BME280;40029;58.708;50.190;2022-12-18T10:01:10;99768.94;;;-2.75;50.32
54122;BME280;40029;58.708;50.190;2022-12-18T10:03:42;99711.63;;;-2.97;50.40
54122;BME280;40029;58.708;50.190;2022-12-18T10:06:26;99759.72;;;-2.66;50.23
54122;BME280;40029;58.708;50.190;2022-12-18T10:14:45;99724.69;;;-2.79;49.75
54122;BME280;40029;58.708;50.190;2022-12-18T10:17:25;99706.09;;;-2.70;49.75
54122;BME280;40029;58.708;50.190;2022-12-18T10:20:11;99695.91;;;-2.69;49.78
54122;BME280;40029;58.708;50.190;2022-12-18T10:26:06;99676.31;;;-2.74;50.09
54122;BME280;40029;58.708;50.190;2022-12-18T10:28:40;99679.69;;;-2.75;49.46
54122;BME280;40029;58.708;50.190;2022-12-18T10:31:17;99677.97;;;-2.77;49.71
54122;BME280;40029;58.708;50.190;2022-12-18T10:33:48;99659.91;;;-2.92;49.68
54122;BME280;40029;58.708;50.190;2022-12-18T10:36:20;99664.09;;;-2.95;50.12
54122;BME280;40029;58.708;50.190;2022-12-18T10:38:51;99674.44;;;-2.85;49.61
54122;BME280;40029;58.708;50.190;2022-12-18T10:41:26;99679.53;;;-2.88;49.89
54122;BME280;40029;58.708;50.190;2022-12-18T10:44:27;99681.34;;;-2.78;50.20
54122;BME280;40029;58.708;50.190;2022-12-18T10:47:04;99669.34;;;-2.86;49.94
54122;BME280;40029;58.708;50.190;2022-12-18T10:49:38;99680.50;;;-2.80;50.03
54122;BME280;40029;58.708;50.190;2022-12-18T10:54:52;99664.28;;;-2.83;49.73
54122;BME280;40029;58.708;50.190;2022-12-18T10:57:39;99662.66;;;-2.78;49.95
54122;BME280;40029;58.708;50.190;2022-12-18T11:00:29;99660.16;;;-2.72;49.57
54122;BME280;40029;58.708;50.190;2022-12-18T11:03:01;99637.94;;;-2.81;49.22
54122;BME280;40029;58.708;50.190;2022-12-18T11:05:33;99639.75;;;-2.73;49.73
54122;BME280;40029;58.708;50.190;2022-12-18T11:08:05;99638.91;;;-2.75;49.19
54122;BME280;40029;58.708;50.190;2022-12-18T11:10:37;99632.94;;;-2.76;49.37
54122;BME280;40029;58.708;50.190;2022-12-18T11:13:20;99632.78;;;-2.85;49.40
54122;BME280;40029;58.708;50.190;2022-12-18T11:15:51;99636.25;;;-2.82;49.74
54122;BME280;40029;58.708;50.190;2022-12-18T11:18:29;99622.66;;;-2.81;49.31
54122;BME280;40029;58.708;50.190;2022-12-18T11:21:06;99632.06;;;-2.78;49.41
54122;BME280;40029;58.708;50.190;2022-12-18T11:23:47;99627.84;;;-2.76;49.47
54122;BME280;40029;58.708;50.190;2022-12-18T11:26:20;99616.69;;;-2.83;49.75
54122;BME280;40029;58.708;50.190;2022-12-18T11:29:08;99633.59;;;-2.89;49.65
54122;BME280;40029;58.708;50.190;2022-12-18T11:31:39;99608.94;;;-2.92;50.31
54122;BME280;40029;58.708;50.190;2022-12-18T11:34:22;99616.69;;;-2.84;49.97
54122;BME280;40029;58.708;50.190;2022-12-18T11:36:59;99614.94;;;-2.87;49.81
54122;BME280;40029;58.708;50.190;2022-12-18T11:39:37;99609.03;;;-2.84;50.37
54122;BME280;40029;58.708;50.190;2022-12-18T11:42:53;99599.66;;;-2.85;50.02
54122;BME280;40029;58.708;50.190;2022-12-18T11:45:31;99593.22;;;-3.19;50.56
54122;BME280;40029;58.708;50.190;2022-12-18T11:50:54;99570.59;;;-2.98;50.03
54122;BME280;40029;58.708;50.190;2022-12-18T11:53:27;99563.88;;;-2.93;49.93
54122;BME280;40029;58.708;50.190;2022-12-18T11:56:19;99559.53;;;-2.98;50.28
54122;BME280;40029;58.708;50.190;2022-12-18T12:02:15;99544.31;;;-2.95;49.91
54122;BME280;40029;58.708;50.190;2022-12-18T12:16:57;99529.75;;;-3.04;49.83
54122;BME280;40029;58.708;50.190;2022-12-18T12:30:21;99510.03;;;-3.17;50.08
54122;BME280;40029;58.708;50.190;2022-12-18T12:38:46;99496.53;;;-3.10;50.12
54122;BME280;40029;58.708;50.190;2022-12-18T12:41:24;99449.59;;;-3.29;50.38
54122;BME280;40029;58.708;50.190;2022-12-18T12:44:26;99470.94;;;-3.19;50.20
54122;BME280;40029;58.708;50.190;2022-12-18T12:50:13;99470.19;;;-3.14;49.75
54122;BME280;40029;58.708;50.190;2022-12-18T12:52:52;99465.13;;;-3.09;50.02
54122;BME280;40029;58.708;50.190;2022-12-18T12:55:26;99453.94;;;-3.20;49.91
54122;BME280;40029;58.708;50.190;2022-12-18T13:48:38;99321.59;;;-3.84;49.33
54122;BME280;40029;58.708;50.190;2022-12-18T13:51:10;99401.13;;;-3.34;49.34
54122;BME280;40029;58.708;50.190;2022-12-18T13:53:49;99393.53;;;-3.31;49.67
54122;BME280;40029;58.708;50.190;2022-12-18T13:56:24;99394.44;;;-3.25;49.41
54122;BME280;40029;58.708;50.190;2022-12-18T14:01:50;99378.13;;;-3.43;49.41
54122;BME280;40029;58.708;50.190;2022-12-18T14:04:27;99391.72;;;-3.41;49.68
54122;BME280;40029;58.708;50.190;2022-12-18T14:07:04;99301.25;;;-3.83;49.11
54122;BME280;40029;58.708;50.190;2022-12-18T14:09:57;99395.44;;;-3.14;49.32
54122;BME280;40029;58.708;50.190;2022-12-18T14:12:32;99398.78;;;-3.15;49.28
54122;BME280;40029;58.708;50.190;2022-12-18T14:20:34;99378.22;;;-3.32;48.75
54122;BME280;40029;58.708;50.190;2022-12-18T14:23:05;99370.72;;;-3.21;49.06
54122;BME280;40029;58.708;50.190;2022-12-18T14:25:55;99364.81;;;-3.17;48.92
54122;BME280;40029;58.708;50.190;2022-12-18T14:28:27;99366.50;;;-3.16;48.83
54122;BME280;40029;58.708;50.190;2022-12-18T14:30:58;99339.06;;;-3.42;48.46
54122;BME280;40029;58.708;50.190;2022-12-18T14:33:29;99355.38;;;-3.24;48.88
54122;BME280;40029;58.708;50.190;2022-12-18T14:36:04;99344.34;;;-3.27;49.03
54122;BME280;40029;58.708;50.190;2022-12-18T14:38:39;99346.88;;;-3.27;49.00
54122;BME280;40029;58.708;50.190;2022-12-18T14:41:15;99340.75;;;-3.42;49.22
54122;BME280;40029;58.708;50.190;2022-12-18T14:43:48;99346.00;;;-3.29;49.22
54122;BME280;40029;58.708;50.190;2022-12-18T14:51:55;99311.91;;;-3.43;49.12
54122;BME280;40029;58.708;50.190;2022-12-18T14:54:28;99341.78;;;-3.27;49.01
54122;BME280;40029;58.708;50.190;2022-12-18T14:57:03;99341.00;;;-3.19;48.56
54122;BME280;40029;58.708;50.190;2022-12-18T14:59:35;99334.16;;;-3.27;48.98
54122;BME280;40029;58.708;50.190;2022-12-18T15:02:18;99338.41;;;-3.27;49.11
54122;BME280;40029;58.708;50.190;2022-12-18T15:05:03;99338.34;;;-3.30;48.79
54122;BME280;40029;58.708;50.190;2022-12-18T15:07:43;99341.81;;;-3.23;49.19
54122;BME280;40029;58.708;50.190;2022-12-18T15:10:45;99341.84;;;-3.22;49.08
54122;BME280;40029;58.708;50.190;2022-12-18T15:13:22;99341.84;;;-3.19;48.65
54122;BME280;40029;58.708;50.190;2022-12-18T15:15:56;99322.69;;;-2.77;47.77
54122;BME280;40029;58.708;50.190;2022-12-18T15:18:32;99325.28;;;-2.74;47.32
54122;BME280;40029;58.708;50.190;2022-12-18T15:21:10;99316.88;;;-2.62;46.85
54122;BME280;40029;58.708;50.190;2022-12-18T15:26:18;99320.38;;;-2.48;46.02
54122;BME280;40029;58.708;50.190;2022-12-18T15:28:51;99318.66;;;-2.52;45.96
54122;BME280;40029;58.708;50.190;2022-12-18T15:31:33;99306.56;;;-2.79;46.36
54122;BME280;40029;58.708;50.190;2022-12-18T15:36:39;99292.13;;;-2.75;46.11
54122;BME280;40029;58.708;50.190;2022-12-18T15:39:12;99296.50;;;-2.56;45.71
54122;BME280;40029;58.708;50.190;2022-12-18T15:41:43;99302.50;;;-2.54;46.12
54122;BME280;40029;58.708;50.190;2022-12-18T15:44:34;99306.72;;;-2.56;45.74
54122;BME280;40029;58.708;50.190;2022-12-18T15:47:10;99296.28;;;-2.85;45.94
54122;BME280;40029;58.708;50.190;2022-12-18T15:49:42;99301.53;;;-2.71;46.22
54122;BME280;40029;58.708;50.190;2022-12-18T15:52:13;99305.00;;;-2.57;46.19
54122;BME280;40029;58.708;50.190;2022-12-18T15:54:44;99306.56;;;-2.78;46.58
54122;BME280;40029;58.708;50.190;2022-12-18T15:57:34;99316.84;;;-2.67;46.01
54122;BME280;40029;58.708;50.190;2022-12-18T16:00:05;99315.16;;;-2.66;46.33
54122;BME280;40029;58.708;50.190;2022-12-18T16:02:36;99308.22;;;-2.83;46.87
54122;BME280;40029;58.708;50.190;2022-12-18T16:05:15;99305.69;;;-2.80;46.34
54122;BME280;40029;58.708;50.190;2022-12-18T16:07:47;99298.72;;;-3.00;46.93
54122;BME280;40029;58.708;50.190;2022-12-18T16:10:18;99311.63;;;-2.82;46.47
54122;BME280;40029;58.708;50.190;2022-12-18T16:12:50;99219.47;;;-3.31;46.69
54122;BME280;40029;58.708;50.190;2022-12-18T16:15:21;99309.88;;;-2.86;46.97
54122;BME280;40029;58.708;50.190;2022-12-18T16:17:52;99302.13;;;-3.00;46.65
54122;BME280;40029;58.708;50.190;2022-12-18T16:20:23;99298.84;;;-2.88;46.55
54122;BME280;40029;58.708;50.190;2022-12-18T16:22:54;99263.78;;;-3.12;46.49
54122;BME280;40029;58.708;50.190;2022-12-18T16:25:27;99308.22;;;-2.83;46.58
54122;BME280;40029;58.708;50.190;2022-12-18T16:27:58;99311.69;;;-2.76;46.37
54122;BME280;40029;58.708;50.190;2022-12-18T16:30:31;99311.94;;;-3.40;48.08
54122;BME280;40029;58.708;50.190;2022-12-18T16:33:02;99305.84;;;-3.51;48.87
54122;BME280;40029;58.708;50.190;2022-12-18T16:35:33;99302.19;;;-3.74;49.42
54122;BME280;40029;58.708;50.190;2022-12-18T16:38:04;99304.78;;;-3.73;49.55
54122;BME280;40029;58.708;50.190;2022-12-18T16:40:35;99289.41;;;-3.79;49.47
54122;BME280;40029;58.708;50.190;2022-12-18T16:43:28;99297.28;;;-3.59;49.26
54122;BME280;40029;58.708;50.190;2022-12-18T16:45:59;99303.13;;;-3.69;49.36
54122;BME280;40029;58.708;50.190;2022-12-18T16:48:31;99292.78;;;-3.80;49.29
54122;BME280;40029;58.708;50.190;2022-12-18T16:51:05;99312.31;;;-3.81;49.42
54122;BME280;40029;58.708;50.190;2022-12-18T16:53:36;99301.38;;;-3.73;49.32
54122;BME280;40029;58.708;50.190;2022-12-18T16:56:08;99314.16;;;-3.66;48.90
54122;BME280;40029;58.708;50.190;2022-12-18T16:58:39;99234.66;;;-4.16;48.87
54122;BME280;40029;58.708;50.190;2022-12-18T17:01:10;99304.56;;;-3.87;49.33
54122;BME280;40029;58.708;50.190;2022-12-18T17:03:41;99313.19;;;-3.77;49.39
54122;BME280;40029;58.708;50.190;2022-12-18T17:06:12;99307.22;;;-3.82;49.25
54122;BME280;40029;58.708;50.190;2022-12-18T17:08:43;99245.50;;;-4.31;49.78
54122;BME280;40029;58.708;50.190;2022-12-18T17:11:14;99290.88;;;-3.98;49.88
54122;BME280;40029;58.708;50.190;2022-12-18T17:13:45;99295.13;;;-3.95;49.78
54122;BME280;40029;58.708;50.190;2022-12-18T17:16:17;99299.38;;;-3.99;49.55
54122;BME280;40029;58.708;50.190;2022-12-18T17:18:48;99274.63;;;-4.11;49.58
54122;BME280;40029;58.708;50.190;2022-12-18T17:21:19;99304.50;;;-3.94;49.57
54122;BME280;40029;58.708;50.190;2022-12-18T17:23:50;99298.53;;;-3.98;49.55
54122;BME280;40029;58.708;50.190;2022-12-18T17:26:21;99269.38;;;-4.23;49.99
54122;BME280;40029;58.708;50.190;2022-12-18T17:28:52;99312.03;;;-4.00;50.14
54122;BME280;40029;58.708;50.190;2022-12-18T17:31:27;99317.81;;;-4.12;49.88
54122;BME280;40029;58.708;50.190;2022-12-18T17:34:01;99307.88;;;-3.95;49.73
54122;BME280;40029;58.708;50.190;2022-12-18T17:36:32;99319.72;;;-3.99;49.65
54122;BME280;40029;58.708;50.190;2022-12-18T17:39:05;99315.47;;;-3.98;49.38
54122;BME280;40029;58.708;50.190;2022-12-18T17:41:36;99324.75;;;-4.02;49.78
54122;BME280;40029;58.708;50.190;2022-12-18T17:44:07;99271.91;;;-4.23;49.35
54122;BME280;40029;58.708;50.190;2022-12-18T17:46:38;99332.47;;;-3.96;49.46
54122;BME280;40029;58.708;50.190;2022-12-18T17:49:10;99326.63;;;-3.89;48.95
54122;BME280;40029;58.708;50.190;2022-12-18T17:51:41;99320.47;;;-4.08;49.33
54122;BME280;40029;58.708;50.190;2022-12-18T17:54:12;99325.31;;;-4.21;49.63
54122;BME280;40029;58.708;50.190;2022-12-18T17:56:43;99275.00;;;-4.44;49.83
54122;BME280;40029;58.708;50.190;2022-12-18T17:59:15;99267.56;;;-4.32;49.49
54122;BME280;40029;58.708;50.190;2022-12-18T18:01:46;99309.38;;;-4.11;49.14
54122;BME280;40029;58.708;50.190;2022-12-18T18:04:17;99310.34;;;-4.02;49.34
54122;BME280;40029;58.708;50.190;2022-12-18T18:06:48;99253.94;;;-4.35;49.08
54122;BME280;40029;58.708;50.190;2022-12-18T18:09:19;99291.56;;;-4.10;49.65
54122;BME280;40029;58.708;50.190;2022-12-18T18:11:50;99294.00;;;-4.17;49.46
54122;BME280;40029;58.708;50.190;2022-12-18T18:14:39;99303.28;;;-4.22;50.13
54122;BME280;40029;58.708;50.190;2022-12-18T18:17:11;99210.31;;;-4.66;50.02
54122;BME280;40029;58.708;50.190;2022-12-18T18:19:42;99307.69;;;-4.09;49.55
54122;BME280;40029;58.708;50.190;2022-12-18T18:22:13;99307.63;;;-4.15;49.66
54122;BME280;40029;58.708;50.190;2022-12-18T18:24:48;99311.13;;;-4.07;49.94
54122;BME280;40029;58.708;50.190;2022-12-18T18:27:19;99310.19;;;-4.14;49.69
54122;BME280;40029;58.708;50.190;2022-12-18T18:29:50;99302.38;;;-4.28;49.52
54122;BME280;40029;58.708;50.190;2022-12-18T18:32:21;99319.38;;;-4.22;49.80
54122;BME280;40029;58.708;50.190;2022-12-18T18:34:52;99309.09;;;-4.31;49.58
54122;BME280;40029;58.708;50.190;2022-12-18T18:37:23;99310.84;;;-4.27;49.72
54122;BME280;40029;58.708;50.190;2022-12-18T18:39:54;99325.38;;;-4.17;49.44
54122;BME280;40029;58.708;50.190;2022-12-18T18:42:26;99279.19;;;-4.47;49.69
54122;BME280;40029;58.708;50.190;2022-12-18T18:44:57;99328.75;;;-4.19;49.71
54122;BME280;40029;58.708;50.190;2022-12-18T18:47:28;99334.63;;;-4.23;49.65
54122;BME280;40029;58.708;50.190;2022-12-18T18:50:00;99331.31;;;-4.18;49.59
54122;BME280;40029;58.708;50.190;2022-12-18T18:52:31;99343.25;;;-4.12;49.39
54122;BME280;40029;58.708;50.190;2022-12-18T18:55:02;99308.19;;;-4.35;49.46
54122;BME280;40029;58.708;50.190;2022-12-18T18:57:33;99330.53;;;-4.12;49.20
54122;BME280;40029;58.708;50.190;2022-12-18T19:00:05;99346.75;;;-4.07;49.40
54122;BME280;40029;58.708;50.190;2022-12-18T19:02:36;99340.72;;;-4.12;49.23
54122;BME280;40029;58.708;50.190;2022-12-18T19:05:07;99346.69;;;-4.12;49.16
54122;BME280;40029;58.708;50.190;2022-12-18T19:07:38;99323.38;;;-4.41;49.39
54122;BME280;40029;58.708;50.190;2022-12-18T19:10:09;99350.09;;;-4.11;49.43
54122;BME280;40029;58.708;50.190;2022-12-18T19:12:40;99340.66;;;-4.17;49.09
54122;BME280;40029;58.708;50.190;2022-12-18T19:15:30;99317.56;;;-4.32;49.32
54122;BME280;40029;58.708;50.190;2022-12-18T19:18:01;99316.66;;;-4.36;49.00
54122;BME280;40029;58.708;50.190;2022-12-18T19:20:32;99309.88;;;-4.34;48.81
54122;BME280;40029;58.708;50.190;2022-12-18T19:23:02;99342.47;;;-4.10;48.82
54122;BME280;40029;58.708;50.190;2022-12-18T19:25:38;99354.31;;;-4.12;48.95
54122;BME280;40029;58.708;50.190;2022-12-18T19:28:09;99349.00;;;-4.29;49.09
54122;BME280;40029;58.708;50.190;2022-12-18T19:30:40;99348.25;;;-4.20;48.77
54122;BME280;40029;58.708;50.190;2022-12-18T19:33:11;99351.78;;;-4.10;48.62
54122;BME280;40029;58.708;50.190;2022-12-18T19:35:43;99349.97;;;-4.19;48.78
54122;BME280;40029;58.708;50.190;2022-12-18T19:38:14;99335.31;;;-4.35;48.66
54122;BME280;40029;58.708;50.190;2022-12-18T19:40:45;99338.66;;;-4.38;48.61
54122;BME280;40029;58.708;50.190;2022-12-18T19:43:16;99348.22;;;-4.21;48.50
54122;BME280;40029;58.708;50.190;2022-12-18T19:45:53;99328.78;;;-4.16;48.83
54122;BME280;40029;58.708;50.190;2022-12-18T19:48:24;99330.28;;;-4.31;48.54
54122;BME280;40029;58.708;50.190;2022-12-18T19:50:55;99336.41;;;-4.19;48.54
54122;BME280;40029;58.708;50.190;2022-12-18T19:53:26;99291.94;;;-4.46;49.03
54122;BME280;40029;58.708;50.190;2022-12-18T19:55:57;99352.41;;;-4.27;48.52
54122;BME280;40029;58.708;50.190;2022-12-18T19:58:28;99340.56;;;-4.24;48.38
54122;BME280;40029;58.708;50.190;2022-12-18T20:01:00;99351.56;;;-4.25;48.59
54122;BME280;40029;58.708;50.190;2022-12-18T20:03:31;99341.47;;;-4.19;48.58
54122;BME280;40029;58.708;50.190;2022-12-18T20:06:28;99354.94;;;-4.27;48.22
54122;BME280;40029;58.708;50.190;2022-12-18T20:09:03;99364.91;;;-4.39;48.51
54122;BME280;40029;58.708;50.190;2022-12-18T20:11:35;99365.91;;;-4.31;49.08
54122;BME280;40029;58.708;50.190;2022-12-18T20:14:06;99347.97;;;-4.40;48.61
54122;BME280;40029;58.708;50.190;2022-12-18T20:16:37;99324.88;;;-4.52;48.35
54122;BME280;40029;58.708;50.190;2022-12-18T20:19:09;99353.94;;;-4.36;48.10
54122;BME280;40029;58.708;50.190;2022-12-18T20:21:41;99365.19;;;-4.22;47.86
54122;BME280;40029;58.708;50.190;2022-12-18T20:24:12;99362.31;;;-4.42;48.12
54122;BME280;40029;58.708;50.190;2022-12-18T20:26:43;99373.38;;;-4.40;48.00
54122;BME280;40029;58.708;50.190;2022-12-18T20:29:13;99370.06;;;-4.34;48.23
54122;BME280;40029;58.708;50.190;2022-12-18T20:31:44;99372.69;;;-4.30;48.03
54122;BME280;40029;58.708;50.190;2022-12-18T20:34:15;99388.72;;;-4.34;48.05
54122;BME280;40029;58.708;50.190;2022-12-18T20:36:46;99391.03;;;-4.49;48.77
54122;BME280;40029;58.708;50.190;2022-12-18T20:39:17;99386.03;;;-4.43;48.35
54122;BME280;40029;58.708;50.190;2022-12-18T20:41:48;99374.94;;;-4.48;48.47
54122;BME280;40029;58.708;50.190;2022-12-18T20:44:20;99324.44;;;-4.81;48.17
54122;BME280;40029;58.708;50.190;2022-12-18T20:46:55;99381.66;;;-4.52;48.29
54122;BME280;40029;58.708;50.190;2022-12-18T20:49:26;99350.19;;;-4.60;48.41
54122;BME280;40029;58.708;50.190;2022-12-18T20:51:58;99361.38;;;-4.50;47.66
54122;BME280;40029;58.708;50.190;2022-12-18T20:54:29;99369.66;;;-4.60;47.74
54122;BME280;40029;58.708;50.190;2022-12-18T20:57:00;99359.41;;;-4.66;48.03
54122;BME280;40029;58.708;50.190;2022-12-18T20:59:30;99319.19;;;-4.90;48.18
54122;BME280;40029;58.708;50.190;2022-12-18T21:02:01;99358.44;;;-4.74;47.92
54122;BME280;40029;58.708;50.190;2022-12-18T21:04:32;99357.84;;;-4.58;47.84
54122;BME280;40029;58.708;50.190;2022-12-18T21:07:03;99368.81;;;-4.62;47.95
54122;BME280;40029;58.708;50.190;2022-12-18T21:09:34;99371.34;;;-4.62;47.75
54122;BME280;40029;58.708;50.190;2022-12-18T21:12:10;99361.97;;;-4.65;47.41
54122;BME280;40029;58.708;50.190;2022-12-18T21:15:05;99360.28;;;-4.64;47.76
54122;BME280;40029;58.708;50.190;2022-12-18T21:17:36;99369.59;;;-4.63;47.72
54122;BME280;40029;58.708;50.190;2022-12-18T21:20:08;99368.66;;;-4.71;47.87
54122;BME280;40029;58.708;50.190;2022-12-18T21:22:39;99282.97;;;-5.30;47.70
54122;BME280;40029;58.708;50.190;2022-12-18T21:25:10;99318.84;;;-5.10;48.06
54122;BME280;40029;58.708;50.190;2022-12-18T21:27:41;99335.19;;;-4.96;47.67
54122;BME280;40029;58.708;50.190;2022-12-18T21:30:12;99371.09;;;-4.76;47.63
54122;BME280;40029;58.708;50.190;2022-12-18T21:32:44;99345.16;;;-5.08;48.14
54122;BME280;40029;58.708;50.190;2022-12-18T21:35:15;99369.38;;;-4.77;47.92
54122;BME280;40029;58.708;50.190;2022-12-18T21:37:46;99361.69;;;-4.80;47.94
54122;BME280;40029;58.708;50.190;2022-12-18T21:40:17;99376.16;;;-4.78;48.06
54122;BME280;40029;58.708;50.190;2022-12-18T21:42:48;99369.31;;;-4.80;48.19
54122;BME280;40029;58.708;50.190;2022-12-18T21:45:38;99372.69;;;-4.84;48.31
54122;BME280;40029;58.708;50.190;2022-12-18T21:48:09;99362.53;;;-4.83;48.15
54122;BME280;40029;58.708;50.190;2022-12-18T21:50:39;99366.00;;;-4.78;48.48
54122;BME280;40029;58.708;50.190;2022-12-18T21:53:10;99367.59;;;-4.83;48.30
54122;BME280;40029;58.708;50.190;2022-12-18T21:55:41;99359.06;;;-4.88;48.86
54122;BME280;40029;58.708;50.190;2022-12-18T21:58:12;99363.22;;;-4.91;48.89
54122;BME280;40029;58.708;50.190;2022-12-18T22:00:43;99346.22;;;-4.95;48.57
54122;BME280;40029;58.708;50.190;2022-12-18T22:03:14;99364.00;;;-4.95;49.25